createdAt,value
2019-04-05T00:00:16.679Z,7.87
2019-04-05T00:02:48.885Z,7.90
2019-04-05T00:05:20.849Z,8.68
2019-04-05T00:07:52.889Z,7.60
2019-04-05T00:10:25.473Z,9.90
2019-04-05T00:12:58.450Z,8.53
2019-04-05T00:15:31.165Z,8.00
2019-04-05T00:18:04.339Z,7.55
2019-04-05T00:20:36.939Z,7.22
2019-04-05T00:23:09.892Z,7.83
2019-04-05T00:25:42.071Z,8.20
2019-04-05T00:28:14.338Z,8.03
2019-04-05T00:30:46.882Z,7.55
2019-04-05T00:33:18.858Z,7.80
2019-04-05T00:35:50.904Z,7.25
2019-04-05T00:38:22.878Z,7.60
2019-04-05T00:40:54.831Z,8.20
2019-04-05T00:43:26.869Z,8.10
2019-04-05T00:45:59.335Z,7.50
2019-04-05T00:48:32.139Z,7.90
2019-04-05T00:51:04.865Z,7.30
2019-04-05T00:53:37.799Z,8.10
2019-04-05T00:58:41.339Z,7.40
2019-04-05T01:01:14.336Z,7.35
2019-04-05T01:03:46.911Z,6.87
2019-04-05T01:06:19.367Z,7.65
2019-04-05T01:08:52.281Z,7.80
2019-04-05T01:11:24.832Z,7.53
2019-04-05T01:13:57.520Z,7.05
2019-04-05T01:16:29.841Z,7.10
2019-04-05T01:19:04.023Z,6.92
2019-04-05T01:21:41.655Z,6.72
2019-04-05T01:24:13.905Z,8.15
2019-04-05T01:26:46.876Z,7.12
2019-04-05T01:29:19.182Z,7.45
2019-04-05T01:31:51.861Z,6.87
2019-04-05T01:34:24.402Z,7.92
2019-04-05T01:36:56.831Z,7.75
2019-04-05T01:39:28.916Z,7.15
2019-04-05T01:42:00.888Z,7.47
2019-04-05T01:44:32.897Z,7.92
2019-04-05T01:47:05.100Z,7.10
2019-04-05T01:49:37.343Z,7.15
2019-04-05T01:52:09.895Z,8.35
2019-04-05T01:54:42.052Z,7.83
2019-04-05T01:57:14.377Z,7.97
2019-04-05T01:59:46.946Z,7.60
2019-04-05T02:02:19.335Z,7.28
2019-04-05T02:04:52.964Z,8.00
2019-04-05T02:07:25.881Z,7.25
2019-04-05T02:09:58.400Z,9.23
2019-04-05T02:12:30.805Z,9.05
2019-04-05T02:15:03.010Z,7.25
2019-04-05T02:17:36.105Z,7.28
2019-04-05T02:20:09.814Z,8.40
2019-04-05T02:22:41.858Z,7.55
2019-04-05T02:25:14.078Z,8.08
2019-04-05T02:27:46.354Z,7.45
2019-04-05T02:30:18.906Z,6.67
2019-04-05T02:32:51.358Z,7.55
2019-04-05T02:35:23.853Z,7.28
2019-04-05T02:37:57.594Z,7.53
2019-04-05T02:40:29.836Z,7.15
2019-04-05T02:43:03.100Z,7.25
2019-04-05T02:45:35.701Z,6.62
2019-04-05T02:53:14.885Z,6.30
2019-04-05T02:55:47.327Z,6.67
2019-04-05T02:58:19.488Z,7.33
2019-04-05T03:00:52.449Z,8.40
2019-04-05T03:03:24.891Z,8.23
2019-04-05T03:05:57.341Z,7.90
2019-04-05T03:08:30.021Z,8.23
2019-04-05T03:11:16.073Z,7.92
2019-04-05T03:13:55.426Z,9.73
2019-04-05T03:16:41.060Z,7.75
2019-04-05T03:19:25.336Z,8.55
2019-04-05T03:22:07.403Z,9.08
2019-04-05T03:24:40.886Z,7.50
2019-04-05T03:27:34.925Z,7.85
2019-04-05T03:30:08.107Z,10.38
2019-04-05T03:32:40.883Z,7.67
2019-04-05T03:35:13.877Z,7.80
2019-04-05T03:37:46.326Z,7.95
2019-04-05T03:40:18.921Z,7.87
2019-04-05T03:42:51.368Z,8.30
2019-04-05T03:45:23.820Z,7.58
2019-04-05T03:47:55.865Z,8.40
2019-04-05T03:50:28.331Z,8.08
2019-04-05T03:53:00.925Z,8.13
2019-04-05T03:55:33.378Z,12.53
2019-04-05T03:58:05.868Z,7.78
2019-04-05T04:00:38.324Z,8.63
2019-04-05T04:03:10.892Z,7.85
2019-04-05T04:05:43.329Z,8.48
2019-04-05T04:08:17.118Z,10.65
2019-04-05T04:10:49.909Z,8.68
2019-04-05T04:13:21.997Z,7.55
2019-04-05T04:15:54.887Z,8.03
2019-04-05T04:18:27.543Z,10.58
2019-04-05T04:21:06.376Z,9.90
2019-04-05T04:23:39.313Z,8.60
2019-04-05T04:26:11.850Z,7.85
2019-04-05T04:28:44.695Z,8.03
2019-04-05T04:33:49.427Z,8.43
2019-04-05T04:36:21.941Z,8.85
2019-04-05T04:38:54.328Z,10.78
2019-04-05T04:41:27.338Z,10.70
2019-04-05T04:43:59.654Z,8.88
2019-04-05T04:46:32.021Z,9.40
2019-04-05T04:49:13.492Z,9.38
2019-04-05T04:51:49.303Z,11.80
2019-04-05T04:54:22.333Z,11.50
2019-04-05T04:56:54.875Z,11.60
2019-04-05T04:59:26.880Z,9.58
2019-04-05T05:01:59.376Z,10.78
2019-04-05T05:04:32.328Z,10.53
2019-04-05T05:07:04.933Z,9.23
2019-04-05T05:09:37.358Z,10.53
2019-04-05T05:12:09.855Z,10.48
2019-04-05T05:14:41.865Z,9.38
2019-04-05T05:17:13.916Z,8.23
2019-04-05T05:19:45.943Z,12.13
2019-04-05T05:22:18.350Z,10.23
2019-04-05T05:24:50.833Z,8.88
2019-04-05T05:27:23.067Z,8.35
2019-04-05T05:29:55.833Z,8.98
2019-04-05T05:32:27.857Z,8.93
2019-04-05T05:35:02.167Z,8.78
2019-04-05T05:37:34.421Z,11.70
2019-04-05T05:40:07.276Z,8.98
2019-04-05T05:42:40.349Z,8.73
2019-04-05T05:45:13.795Z,8.83
2019-04-05T05:47:52.113Z,9.18
2019-04-05T05:50:20.620Z,8.70
2019-04-05T05:52:52.852Z,8.70
2019-04-05T05:55:25.319Z,9.80
2019-04-05T05:57:58.790Z,9.40
2019-04-05T06:00:32.087Z,9.85
2019-04-05T06:03:06.187Z,9.50
2019-04-05T06:05:39.062Z,8.95
2019-04-05T06:08:11.398Z,8.93
2019-04-05T06:10:44.317Z,9.55
2019-04-05T06:13:16.547Z,9.05
2019-04-05T06:15:49.331Z,9.00
2019-04-05T06:18:21.783Z,15.18
2019-04-05T06:20:53.983Z,9.50
2019-04-05T06:23:33.615Z,8.98
2019-04-05T06:26:00.835Z,9.33
2019-04-05T06:28:32.935Z,9.63
2019-04-05T06:31:05.340Z,10.18
2019-04-05T06:33:37.975Z,9.38
2019-04-05T06:36:10.343Z,9.33
2019-04-05T06:38:42.918Z,11.28
2019-04-05T06:41:15.040Z,15.85
2019-04-05T06:43:47.410Z,11.12
2019-04-05T06:46:19.845Z,9.88
2019-04-05T06:48:51.893Z,9.93
2019-04-05T06:51:23.978Z,10.32
2019-04-05T06:53:57.070Z,11.33
2019-04-05T06:56:29.455Z,11.90
2019-04-05T06:59:52.281Z,10.23
2019-04-05T07:02:24.788Z,10.15
2019-04-05T07:04:56.905Z,12.13
2019-04-05T07:07:28.873Z,11.25
2019-04-05T07:10:01.040Z,10.23
2019-04-05T07:12:33.320Z,10.43
2019-04-05T07:15:06.358Z,8.75
2019-04-05T07:17:38.892Z,10.88
2019-04-05T07:20:11.336Z,10.78
2019-04-05T07:22:43.881Z,10.35
2019-04-05T07:25:16.436Z,16.45
2019-04-05T07:27:48.817Z,17.00
2019-04-05T07:30:21.378Z,12.65
2019-04-05T07:32:54.049Z,14.23
2019-04-05T07:35:33.244Z,11.53
2019-04-05T07:38:00.489Z,10.23
2019-04-05T07:40:32.848Z,10.10
2019-04-05T07:43:04.925Z,16.15
2019-04-05T07:45:37.855Z,11.30
2019-04-05T07:48:10.046Z,10.10
2019-04-05T07:50:42.436Z,11.60
2019-04-05T07:53:14.846Z,15.32
2019-04-05T07:55:46.929Z,10.75
2019-04-05T07:58:19.651Z,10.78
2019-04-05T08:00:59.358Z,11.12
2019-04-05T08:03:32.325Z,13.83
2019-04-05T08:06:05.325Z,13.55
2019-04-05T08:09:06.389Z,10.98
2019-04-05T08:11:38.914Z,10.95
2019-04-05T08:14:11.876Z,9.58
2019-04-05T08:16:43.893Z,12.82
2019-04-05T08:19:16.864Z,9.93
2019-04-05T08:21:49.369Z,9.50
2019-04-05T08:24:21.887Z,11.20
2019-04-05T08:26:54.395Z,9.85
2019-04-05T08:29:27.019Z,24.02
2019-04-05T08:32:13.628Z,11.83
2019-04-05T08:34:35.348Z,11.10
2019-04-05T08:37:08.094Z,9.98
2019-04-05T08:39:40.308Z,9.85
2019-04-05T08:42:13.287Z,10.38
2019-04-05T08:44:46.321Z,10.18
2019-04-05T08:47:18.838Z,9.38
2019-04-05T08:49:51.350Z,11.20
2019-04-05T08:52:26.879Z,9.73
2019-04-05T08:54:58.092Z,10.20
2019-04-05T08:57:30.892Z,9.50
2019-04-05T09:00:03.328Z,8.85
2019-04-05T09:02:35.904Z,9.53
2019-04-05T09:05:08.839Z,9.40
2019-04-05T09:07:40.836Z,9.38
2019-04-05T09:10:13.354Z,9.73
2019-04-05T09:12:46.137Z,9.03
2019-04-05T09:15:18.327Z,9.50
2019-04-05T09:17:50.949Z,8.88
2019-04-05T09:20:23.510Z,9.55
2019-04-05T09:22:56.481Z,9.70
2019-04-05T09:25:30.508Z,8.78
2019-04-05T09:28:03.507Z,9.20
2019-04-05T09:30:35.999Z,8.18
2019-04-05T09:33:09.362Z,9.05
2019-04-05T09:35:42.338Z,8.13
2019-04-05T09:38:14.883Z,9.25
2019-04-05T09:40:49.358Z,8.70
2019-04-05T09:43:21.896Z,8.93
2019-04-05T09:45:54.425Z,8.40
2019-04-05T09:48:26.885Z,8.98
2019-04-05T09:50:59.347Z,8.45
2019-04-05T09:53:31.942Z,8.48
2019-04-05T09:56:04.834Z,9.10
2019-04-05T09:58:40.852Z,8.85
2019-04-05T10:01:14.996Z,9.00
2019-04-05T10:03:47.396Z,9.25
2019-04-05T10:06:19.863Z,8.30
2019-04-05T10:08:52.694Z,8.08
2019-04-05T10:13:59.865Z,8.48
2019-04-05T10:16:32.348Z,8.68
2019-04-05T10:19:04.903Z,8.08
2019-04-05T10:21:39.347Z,9.70
2019-04-05T10:24:11.901Z,8.63
2019-04-05T10:26:44.497Z,8.30
2019-04-05T10:29:17.070Z,8.10
2019-04-05T10:31:49.363Z,8.85
2019-04-05T10:34:21.904Z,10.18
2019-04-05T10:36:54.057Z,9.83
2019-04-05T10:39:26.397Z,9.75
2019-04-05T10:42:03.786Z,8.20
2019-04-05T10:44:34.005Z,11.15
2019-04-05T10:47:06.364Z,7.78
2019-04-05T10:49:42.076Z,9.18
2019-04-05T10:52:13.939Z,8.10
2019-04-05T10:54:45.862Z,8.50
2019-04-05T10:57:18.131Z,7.70
2019-04-05T10:59:50.921Z,8.15
2019-04-05T11:02:23.025Z,8.53
2019-04-05T11:04:56.821Z,9.33
2019-04-05T11:07:29.324Z,8.38
2019-04-05T11:10:01.909Z,8.63
2019-04-05T11:12:34.580Z,7.90
2019-04-05T11:15:07.833Z,9.90
2019-04-05T11:17:42.272Z,8.85
2019-04-05T11:20:21.053Z,8.70
2019-04-05T11:22:50.918Z,8.68
2019-04-05T11:25:23.891Z,7.87
2019-04-05T11:27:56.718Z,8.83
2019-04-05T11:38:24.233Z,9.35
2019-04-05T11:40:56.910Z,9.18
2019-04-05T11:43:32.963Z,8.40
2019-04-05T11:46:06.195Z,8.50
2019-04-05T11:48:41.175Z,7.85
2019-04-05T11:51:13.324Z,8.23
2019-04-05T11:53:55.134Z,8.40
2019-04-05T11:56:27.838Z,7.80
2019-04-05T11:59:01.127Z,7.90
2019-04-05T12:01:45.822Z,9.03
2019-04-05T12:04:17.862Z,11.63
2019-04-05T12:06:51.772Z,8.80
2019-04-05T12:09:23.852Z,8.35
2019-04-05T12:11:55.907Z,7.78
2019-04-05T12:14:40.881Z,8.00
2019-04-05T12:17:12.872Z,7.50
2019-04-05T12:19:44.889Z,8.28
2019-04-05T12:22:19.821Z,8.03
2019-04-05T12:24:51.463Z,7.55
2019-04-05T12:27:23.871Z,9.18
2019-04-05T12:29:55.898Z,7.33
2019-04-05T12:32:34.065Z,7.90
2019-04-05T12:35:04.519Z,7.40
2019-04-05T12:37:49.630Z,7.28
2019-04-05T12:40:14.723Z,7.00
2019-04-05T12:42:45.745Z,8.63
2019-04-05T12:45:20.815Z,7.50
2019-04-05T12:47:52.909Z,8.90
2019-04-05T12:50:24.940Z,7.53
2019-04-05T12:52:57.419Z,7.78
2019-04-05T12:55:29.897Z,8.18
2019-04-05T12:58:02.308Z,7.65
2019-04-05T13:00:34.928Z,7.97
2019-04-05T13:03:06.990Z,8.00
2019-04-05T13:05:39.321Z,7.47
2019-04-05T13:08:11.807Z,7.42
2019-04-05T13:10:43.898Z,13.48
2019-04-05T13:13:20.811Z,7.65
2019-04-05T13:15:55.778Z,8.28
2019-04-05T13:18:30.630Z,8.83
2019-04-05T13:21:14.008Z,9.63
2019-04-05T13:23:36.598Z,10.50
2019-04-05T13:26:12.538Z,8.20
2019-04-05T13:28:48.686Z,7.80
2019-04-05T13:31:21.879Z,9.48
2019-04-05T13:33:55.188Z,8.70
2019-04-05T13:36:29.764Z,7.95
2019-04-05T13:39:01.876Z,16.25
2019-04-05T13:41:34.046Z,8.95
2019-04-05T13:44:06.902Z,8.00
2019-04-05T13:46:39.293Z,9.40
2019-04-05T13:49:13.069Z,8.08
2019-04-05T13:51:47.492Z,8.13
2019-04-05T13:54:19.855Z,8.38
2019-04-05T13:56:55.051Z,8.45
2019-04-05T13:59:28.479Z,7.95
2019-04-05T14:02:06.343Z,21.35
2019-04-05T14:04:34.894Z,10.43
2019-04-05T14:07:07.863Z,12.03
2019-04-05T14:09:40.709Z,10.32
2019-04-05T14:12:13.965Z,8.50
2019-04-05T14:14:48.766Z,10.98
2019-04-05T14:17:20.850Z,11.12
2019-04-05T14:19:53.019Z,8.55
2019-04-05T14:22:25.333Z,10.40
2019-04-05T14:24:58.018Z,19.42
2019-04-05T14:27:34.814Z,10.48
2019-04-05T14:30:05.572Z,11.12
2019-04-05T14:32:38.318Z,12.45
2019-04-05T14:35:10.944Z,14.20
2019-04-05T14:37:43.324Z,12.18
2019-04-05T14:40:16.332Z,16.07
2019-04-05T14:42:48.865Z,14.75
2019-04-05T14:45:21.319Z,13.65
2019-04-05T14:47:57.682Z,14.10
2019-04-05T14:50:28.942Z,35.70
2019-04-05T14:53:02.279Z,14.28
2019-04-05T14:55:35.526Z,16.70
2019-04-05T14:58:10.344Z,38.42
2019-04-05T15:00:41.875Z,16.07
2019-04-05T15:03:14.325Z,41.02
2019-04-05T15:05:46.862Z,39.42
2019-04-05T15:08:20.659Z,22.25
2019-04-05T15:10:56.611Z,19.40
2019-04-05T15:13:27.277Z,25.02
2019-04-05T15:15:59.887Z,16.50
2019-04-05T15:18:32.065Z,24.55
2019-04-05T15:21:06.362Z,17.95
2019-04-05T15:23:41.075Z,22.07
2019-04-05T15:26:12.375Z,14.18
2019-04-05T15:28:45.378Z,16.93
2019-04-05T15:31:18.096Z,14.33
2019-04-05T15:33:50.329Z,20.43
2019-04-05T15:36:22.859Z,15.13
2019-04-05T15:38:54.881Z,18.87
2019-04-05T15:41:27.048Z,30.97
2019-04-05T15:43:59.367Z,26.95
2019-04-05T15:46:32.119Z,21.65
2019-04-05T15:49:19.452Z,22.60
2019-04-05T15:51:54.317Z,22.10
2019-04-05T15:54:28.809Z,16.75
2019-04-05T15:57:10.320Z,28.90
2019-04-05T15:59:45.102Z,21.23
2019-04-05T16:02:16.878Z,22.90
2019-04-05T16:04:49.097Z,17.98
2019-04-05T16:07:21.323Z,14.00
2019-04-05T16:09:53.868Z,30.92
2019-04-05T16:12:26.323Z,18.70
2019-04-05T16:14:58.962Z,18.62
2019-04-05T16:17:31.012Z,23.35
2019-04-05T16:20:03.161Z,14.87
2019-04-05T16:22:36.023Z,15.65
2019-04-05T16:25:09.024Z,20.20
2019-04-05T16:27:41.322Z,19.23
2019-04-05T16:30:15.328Z,20.27
2019-04-05T16:32:47.888Z,26.12
2019-04-05T16:35:19.855Z,23.57
2019-04-05T16:37:51.889Z,21.65
2019-04-05T16:40:24.307Z,23.18
2019-04-05T16:43:02.759Z,32.65
2019-04-05T16:45:31.367Z,23.65
2019-04-05T16:48:03.897Z,22.60
2019-04-05T16:50:35.901Z,22.45
2019-04-05T17:01:04.841Z,22.52
2019-04-05T17:03:36.937Z,28.65
2019-04-05T17:06:09.100Z,27.07
2019-04-05T17:08:41.852Z,24.67
2019-04-05T17:11:13.820Z,23.02
2019-04-05T17:13:45.902Z,29.65
2019-04-05T17:16:18.324Z,24.92
2019-04-05T17:18:52.489Z,33.38
2019-04-05T17:21:24.938Z,19.57
2019-04-05T17:23:57.263Z,25.05
2019-04-05T17:26:29.617Z,19.90
2019-04-05T17:29:01.927Z,24.32
2019-04-05T17:31:34.327Z,19.17
2019-04-05T17:34:06.836Z,18.05
2019-04-05T17:36:39.033Z,21.97
2019-04-05T17:39:11.872Z,22.37
2019-04-05T17:41:44.280Z,19.35
2019-04-05T17:44:16.804Z,16.07
2019-04-05T17:46:48.866Z,17.90
2019-04-05T17:49:21.333Z,14.38
2019-04-05T17:51:53.851Z,14.15
2019-04-05T17:54:27.123Z,15.93
2019-04-05T17:56:59.541Z,19.65
2019-04-05T17:59:31.860Z,17.45
2019-04-05T18:02:03.957Z,16.60
2019-04-05T18:04:40.065Z,18.40
2019-04-05T18:07:12.896Z,18.05
2019-04-05T18:09:44.834Z,16.35
2019-04-05T18:12:17.043Z,17.20
2019-04-05T18:14:50.136Z,17.12
2019-04-05T18:17:24.915Z,18.45
2019-04-05T18:20:02.455Z,17.10
2019-04-05T18:22:58.338Z,18.77
2019-04-05T18:25:31.368Z,18.65
2019-04-05T18:28:04.059Z,17.35
2019-04-05T18:30:38.754Z,18.90
2019-04-05T18:35:48.870Z,17.50
2019-04-05T18:38:26.246Z,15.72
2019-04-05T18:41:01.402Z,16.77
2019-04-05T18:43:33.841Z,13.43
2019-04-05T18:46:06.728Z,13.18
2019-04-05T18:48:38.889Z,14.30
2019-04-05T18:51:10.889Z,13.20
2019-04-05T18:53:43.356Z,12.80
2019-04-05T18:56:15.887Z,12.05
2019-04-05T18:58:48.837Z,13.20
2019-04-05T19:01:21.534Z,16.20
2019-04-05T19:03:55.110Z,13.68
2019-04-05T19:06:27.849Z,13.45
2019-04-05T19:09:00.785Z,13.15
2019-04-05T19:11:34.077Z,13.60
2019-04-05T19:14:09.766Z,13.13
2019-04-05T19:16:42.029Z,14.43
2019-04-05T19:19:17.819Z,13.40
2019-04-05T19:21:52.169Z,16.02
2019-04-05T19:24:24.879Z,12.98
2019-04-05T19:26:57.123Z,12.88
2019-04-05T19:29:29.870Z,13.08
2019-04-05T19:50:16.137Z,13.78
2019-04-05T19:55:31.489Z,22.90
2019-04-05T19:58:04.926Z,23.90
2019-04-05T20:00:38.066Z,14.53
2019-04-05T20:03:15.668Z,15.78
2019-04-05T20:05:49.526Z,15.70
2019-04-05T20:08:22.921Z,21.00
2019-04-05T20:10:56.735Z,14.43
2019-04-05T20:13:30.138Z,15.10
2019-04-05T20:16:05.818Z,14.00
2019-04-05T20:18:39.535Z,16.90
2019-04-05T20:21:12.834Z,17.37
2019-04-05T20:23:47.794Z,15.30
2019-04-05T20:26:20.763Z,14.43
2019-04-05T20:31:26.379Z,13.55
2019-04-05T20:33:59.382Z,14.23
2019-04-05T20:36:32.847Z,14.20
2019-04-05T20:39:05.937Z,14.73
2019-04-05T20:41:39.366Z,17.37
2019-04-05T20:44:12.715Z,13.98
2019-04-05T20:46:48.390Z,13.10
2019-04-05T20:49:20.862Z,13.93
2019-04-05T20:51:53.288Z,14.23
2019-04-05T20:54:26.375Z,14.87
2019-04-05T20:56:59.355Z,13.65
2019-04-05T20:59:32.149Z,13.30
2019-04-05T21:02:05.132Z,15.90
2019-04-05T21:04:39.102Z,12.45
2019-04-05T21:07:12.602Z,13.85
2019-04-05T21:12:18.600Z,14.18
2019-04-05T21:14:52.484Z,13.30
2019-04-05T21:17:26.259Z,16.00
2019-04-05T21:19:59.468Z,18.05
2019-04-05T21:22:32.545Z,16.45
2019-04-05T21:25:04.915Z,12.82
2019-04-05T21:27:38.440Z,14.85
2019-04-05T21:30:11.986Z,12.98
2019-04-05T21:32:46.029Z,13.98
2019-04-05T21:35:19.379Z,15.98
2019-04-05T21:37:52.751Z,15.68
2019-04-05T21:42:58.566Z,14.18
2019-04-05T21:45:31.397Z,14.98
2019-04-05T21:48:04.747Z,12.78
2019-04-05T21:50:38.471Z,12.58
2019-04-05T21:53:12.387Z,14.58
2019-04-05T21:55:46.333Z,14.63
2019-04-05T21:58:19.384Z,14.05
2019-04-05T22:00:57.362Z,12.90
2019-04-05T22:03:30.134Z,15.68
2019-04-05T22:06:06.344Z,13.45
2019-04-05T22:08:39.312Z,14.18
2019-04-05T22:11:12.354Z,13.03
2019-04-05T22:13:45.552Z,15.50
2019-04-05T22:16:18.341Z,12.47
2019-04-05T22:18:51.381Z,13.78
2019-04-05T22:21:24.362Z,14.83
2019-04-05T22:23:56.873Z,11.57
2019-04-05T22:26:28.916Z,12.80
2019-04-05T22:29:00.887Z,12.85
2019-04-05T22:31:32.883Z,13.03
2019-04-05T22:34:05.075Z,12.13
2019-04-05T22:36:37.347Z,12.28
2019-04-05T22:39:09.908Z,14.18
2019-04-05T22:41:42.042Z,12.15
2019-04-05T22:44:14.335Z,14.18
2019-04-05T22:46:46.910Z,16.50
2019-04-05T22:49:18.879Z,13.32
2019-04-05T22:51:50.901Z,12.58
2019-04-05T22:54:23.416Z,13.35
2019-04-05T22:56:55.860Z,13.25
2019-04-05T22:59:28.298Z,15.28
2019-04-05T23:02:00.905Z,11.97
2019-04-05T23:04:33.041Z,12.73
2019-04-05T23:07:05.296Z,12.07
2019-04-05T23:09:37.890Z,12.18
2019-04-05T23:12:10.341Z,11.90
2019-04-05T23:14:42.834Z,11.80
2019-04-05T23:17:15.104Z,12.43
2019-04-05T23:19:47.852Z,14.53
2019-04-05T23:22:20.901Z,14.20
2019-04-05T23:24:53.047Z,12.37
2019-04-05T23:27:25.328Z,12.50
2019-04-05T23:29:57.906Z,12.85
2019-04-05T23:32:30.613Z,11.93
2019-04-05T23:35:02.899Z,14.15
2019-04-05T23:37:36.031Z,12.65
2019-04-05T23:40:09.361Z,12.18
2019-04-05T23:42:42.375Z,14.45
2019-04-05T23:45:14.848Z,12.73
2019-04-05T23:47:46.894Z,12.07
2019-04-05T23:50:18.898Z,11.88
2019-04-05T23:52:51.819Z,13.30
2019-04-05T23:55:32.825Z,12.13
2019-04-05T23:57:59.642Z,12.33
